Palmer, PR (00721)

5:24 PM AST on July 07, 2015 (GMT -0400)
Fajardo PR Weather Cafe | | Change Station
CLOSE
Current Station
Personal Weather Station
Location: Fajardo, FAJARDO
Elevation: 144 ft
Nearby Weather Stations

Elev 144 ft 18.32 °N, 65.66 °W | Updated 48 seconds ago

Overcast
Overcast
85.4 °F
Feels Like 94 °F
N
7.0
Wind Variable Wind from East
Gusts 8.0 mph

Today
High -- | Low -- °F
--% Chance of Precip.
Yesterday
High -- | Low -- °F
Precip. -- in
5:52 AM 7:03 PM
Waning Gibbous, 61% visible
Pressure 30.07 in
Visibility 10.0 miles
Clouds Mostly Cloudy 2600 ft
Overcast 3300 ft
Heat Index 94 °F
Dew Point 75 °F
Humidity 72%
Rainfall 0.00 in
Snow Depth Not available.
UV 1 out of 12
Pollen Not available.
Air Quality Not available.
Flu Activity Not available.
SPECI TJNR 072101Z AUTO 05011KT 10SM BKN026 OVC033 29/23 A3007 RMK AO2 T02940233 $

More Conditions Fewer Conditions

Pressure 30.07 in
Visibility 10.0 miles
Clouds Mostly Cloudy 2600 ft
Overcast 3300 ft
Heat Index 94 °F
Dew Point 75 °F
Humidity 72%
Rainfall 0.00 in
Snow Depth Not available.
UV 1 out of 12
Pollen Not available.
Air Quality Not available.
Flu Activity Not available.
SPECI TJNR 072101Z AUTO 05011KT 10SM BKN026 OVC033 29/23 A3007 RMK AO2 T02940233 $

More Conditions Fewer Conditions

10-Day Weather Forecast

×

Almanac

Astronomy

Jul. 07, 2015 Rise Set
Actual Time
Civil Twilight
Nautical Twilight
Astronomical Twilight
Moon
Length of Visible Light
Length of Day
Tomorrow will be .
, % of the Moon is Illuminated

Today's Extremes

State Highs State Lows

Community

WunderPhotos

Upload Photos

1,835,923 photos uploaded!

WunderBlogs® & News

Nearby

Air Quality

  Air Quality AQ Index Pollutant
Not available.

Snow Depth

Station Depth Elevation

Earthquake Activity

City Distance Mag. Time & Date
Minimum magnitude displayed is 2.5.

Coastal Water Temperatures

Place Temperature

Stations

Nearby Weather Stations

Station Location Temp. Windchill Dew Point Humidity Wind Precip. Elev Updated Type